Time;durP1;ratioP1;P1;durP2;ratioP2;P2;SDS_P1;SDS_P2;PMS_P1;PMS_P2;Temp;Humidity;BMP_temperature;BMP_pressure;BME280_temperature;BME280_humidity;BME280_pressure;Samples;Min_cycle;Max_cycle;Signal;HPM_P1;HPM_P2
2023/04/08 00:02:12;;;;;;;;;5.00;4.00;;;;;12.21;89.20;101989.88;5017323;28;45692;-71
2023/04/08 00:04:38;;;;;;;;;3.50;3.50;;;;;12.18;89.29;101990.69;5034587;28;45474;-71
2023/04/08 00:07:03;;;;;;;;;2.75;2.75;;;;;12.19;89.55;101994.22;5037885;28;69396;-71
2023/04/08 00:09:28;;;;;;;;;3.00;3.00;;;;;12.18;89.68;101993.34;5038517;28;45332;-71
2023/04/08 00:11:55;;;;;;;;;3.00;2.75;;;;;12.16;89.85;101995.06;5037921;28;60899;-71
2023/04/08 00:14:20;;;;;;;;;4.00;3.00;;;;;12.17;90.23;101998.59;5052073;28;45462;-71
2023/04/08 00:16:46;;;;;;;;;4.50;2.25;;;;;12.17;90.57;101993.31;5036955;28;69666;-71
2023/04/08 00:19:11;;;;;;;;;3.75;3.25;;;;;12.17;90.90;101990.66;5037286;28;67393;-70
2023/04/08 00:21:36;;;;;;;;;3.75;2.00;;;;;12.14;90.86;102004.72;5046233;28;45229;-71
2023/04/08 00:24:02;;;;;;;;;4.50;2.50;;;;;12.14;91.04;101995.88;5040761;28;45540;-71
2023/04/08 00:26:28;;;;;;;;;1.00;1.00;;;;;12.12;90.95;101998.50;5037999;28;46826;-71
2023/04/08 00:28:53;;;;;;;;;2.75;2.75;;;;;12.09;90.89;102001.09;5043403;28;45430;-72
2023/04/08 00:31:18;;;;;;;;;4.25;3.00;;;;;12.05;90.78;102000.13;5041144;28;45435;-72
2023/04/08 00:33:44;;;;;;;;;3.00;3.00;;;;;12.01;90.68;101995.59;5037666;28;54472;-71
2023/04/08 00:36:09;;;;;;;;;3.25;3.25;;;;;11.97;90.80;102001.66;5038340;28;46473;-71
2023/04/08 00:38:35;;;;;;;;;5.00;3.75;;;;;11.94;90.99;102003.38;5024905;28;66182;-72
2023/04/08 00:41:00;;;;;;;;;2.00;2.00;;;;;11.91;90.83;102004.16;5038806;28;45538;-71
2023/04/08 00:43:25;;;;;;;;;4.00;4.00;;;;;11.86;91.26;102008.44;5037973;28;57790;-71
2023/04/08 00:45:51;;;;;;;;;4.25;3.00;;;;;11.82;91.48;102003.03;5038114;28;46449;-71
2023/04/08 00:48:16;;;;;;;;;5.50;3.00;;;;;11.80;91.92;102000.34;5037014;28;56456;-71
2023/04/08 00:50:42;;;;;;;;;4.00;4.00;;;;;11.80;92.60;102000.34;5037549;28;61817;-71
2023/04/08 00:53:07;;;;;;;;;4.50;3.00;;;;;11.75;92.61;102004.63;5036135;28;45526;-71
2023/04/08 00:55:33;;;;;;;;;4.00;3.50;;;;;11.74;92.97;102002.84;5037575;28;45781;-70
2023/04/08 00:57:58;;;;;;;;;3.75;3.00;;;;;11.72;93.41;102004.56;5036926;28;67382;-71
2023/04/08 01:00:24;;;;;;;;;5.75;4.50;;;;;11.72;93.66;102009.84;5035536;28;45531;-71
2023/04/08 01:02:58;;;;;;;;;8.50;4.00;;;;;11.70;93.77;102007.16;5040820;28;45530;-71
2023/04/08 01:05:37;;;;;;;;;7.00;4.00;;;;;11.69;94.15;102012.41;5037548;28;45660;-71
2023/04/08 01:08:06;;;;;;;;;4.50;3.25;;;;;11.67;94.23;102007.09;5038079;28;45414;-70
2023/04/08 01:10:34;;;;;;;;;3.25;3.25;;;;;11.65;94.41;102010.53;5038348;28;45411;-71
2023/04/08 01:13:03;;;;;;;;;5.50;4.00;;;;;11.64;94.80;102016.69;5037348;28;45651;-71
2023/04/08 01:15:29;;;;;;;;;4.75;4.00;;;;;11.59;95.01;102003.34;5020091;28;47565;-70
2023/04/08 01:17:56;;;;;;;;;4.75;3.00;;;;;11.58;94.95;102004.19;5009523;28;69408;-70
2023/04/08 01:20:23;;;;;;;;;7.25;4.00;;;;;11.57;95.25;102012.09;5030474;28;45526;-71
2023/04/08 01:23:02;;;;;;;;;6.25;2.50;;;;;11.53;95.39;102013.75;5038154;28;45196;-71
2023/04/08 01:25:37;;;;;;;;;3.75;3.25;;;;;11.49;95.43;102014.53;5036872;28;47310;-71
2023/04/08 01:28:06;;;;;;;;;5.00;4.00;;;;;11.44;95.67;102006.47;5045634;28;45414;-70
2023/04/08 01:30:33;;;;;;;;;8.50;3.50;;;;;11.43;96.09;102014.38;5037640;28;45359;-70
2023/04/08 01:33:00;;;;;;;;;3.00;3.00;;;;;11.38;95.96;102008.06;5037424;28;45342;-70
2023/04/08 01:35:26;;;;;;;;;9.75;4.00;;;;;11.39;96.44;102007.22;5033756;28;45326;-70
2023/04/08 01:37:52;;;;;;;;;7.25;3.25;;;;;11.36;96.48;102013.31;5036953;28;45920;-70
2023/04/08 01:40:19;;;;;;;;;8.25;4.00;;;;;11.36;96.95;102013.31;5019745;28;45561;-71
2023/04/08 01:42:46;;;;;;;;;8.25;4.00;;;;;11.34;97.03;102016.75;5037498;28;45532;-71
2023/04/08 01:45:12;;;;;;;;;4.75;4.00;;;;;11.30;97.15;102005.22;5011321;28;45631;-69
2023/04/08 01:47:38;;;;;;;;;2.00;2.00;;;;;11.31;97.44;102008.78;5035855;28;67332;-70
2023/04/08 01:50:05;;;;;;;;;4.00;4.00;;;;;11.28;97.59;102012.22;5018440;28;68931;-70
2023/04/08 01:52:32;;;;;;;;;6.50;4.00;;;;;11.28;97.73;102010.44;5019177;28;45416;-71
2023/04/08 01:54:58;;;;;;;;;5.50;5.00;;;;;11.25;97.73;102009.50;5018504;28;46116;-70
2023/04/08 01:57:26;;;;;;;;;4.00;4.00;;;;;11.21;97.77;101999.69;5015767;28;68099;-71
2023/04/08 01:59:52;;;;;;;;;7.00;5.25;;;;;11.21;98.05;102008.50;5036005;28;45562;-70
2023/04/08 02:02:19;;;;;;;;;3.00;3.00;;;;;11.21;98.33;102016.44;5041115;28;45565;-70
2023/04/08 02:04:45;;;;;;;;;9.00;5.25;;;;;11.17;98.17;102000.44;5027157;28;46221;-71
2023/04/08 02:07:10;;;;;;;;;6.50;6.50;;;;;11.17;98.35;102011.03;5028634;28;45408;-70
2023/04/08 02:09:36;;;;;;;;;8.00;4.00;;;;;11.15;98.58;102010.09;5018572;28;45356;-70
2023/04/08 02:12:01;;;;;;;;;8.00;3.25;;;;;11.11;98.56;102001.19;5036889;28;45400;-71
2023/04/08 02:14:27;;;;;;;;;5.25;5.25;;;;;11.09;98.72;101999.38;5035555;28;69135;-70
2023/04/08 02:16:55;;;;;;;;;8.00;6.50;;;;;11.10;98.79;102004.69;5036886;28;45337;-71
2023/04/08 02:19:30;;;;;;;;;3.75;3.00;;;;;11.08;99.07;102008.13;5018978;28;45313;-72
2023/04/08 02:22:01;;;;;;;;;3.25;3.25;;;;;11.05;99.03;102011.59;5016634;28;45535;-70
2023/04/08 02:24:28;;;;;;;;;8.25;8.25;;;;;11.03;99.40;102010.66;5018884;28;46509;-70
2023/04/08 02:26:54;;;;;;;;;7.25;4.00;;;;;11.04;99.30;102014.19;5035459;28;67674;-70
2023/04/08 02:29:20;;;;;;;;;5.25;4.00;;;;;11.02;99.36;102014.13;5027560;28;45533;-70
2023/04/08 02:31:46;;;;;;;;;10.00;4.00;;;;;10.98;99.29;102001.72;5035653;28;45423;-70
2023/04/08 02:34:12;;;;;;;;;7.00;7.00;;;;;10.94;99.46;101998.06;5018434;28;57198;-71
2023/04/08 02:36:39;;;;;;;;;4.00;4.00;;;;;10.94;99.39;102013.03;5018036;28;45408;-70
2023/04/08 02:39:05;;;;;;;;;8.50;5.25;;;;;10.92;99.65;102014.72;5036625;28;45325;-71
2023/04/08 02:41:30;;;;;;;;;10.25;6.75;;;;;10.88;99.67;102011.13;5036319;28;45249;-70
2023/04/08 02:43:56;;;;;;;;;10.50;6.75;;;;;10.86;99.61;102007.50;5018871;28;45589;-71
2023/04/08 02:46:22;;;;;;;;;9.25;6.00;;;;;10.86;99.51;102018.09;5036122;28;46613;-71
2023/04/08 02:48:47;;;;;;;;;5.75;5.75;;;;;10.84;99.71;102017.16;5036114;28;45517;-71
2023/04/08 02:51:12;;;;;;;;;6.75;4.00;;;;;10.81;99.60;102013.53;5027794;28;62224;-71
2023/04/08 02:53:38;;;;;;;;;6.25;6.25;;;;;10.77;99.61;102006.38;5029667;28;45361;-71
2023/04/08 02:56:03;;;;;;;;;8.25;6.00;;;;;10.73;99.75;101998.34;5034954;28;68146;-70
2023/04/08 02:58:29;;;;;;;;;7.75;7.75;;;;;10.74;99.74;102009.81;5036350;28;45257;-70
2023/04/08 03:00:55;;;;;;;;;4.00;4.00;;;;;10.70;99.77;102011.47;5036014;28;45399;-71
2023/04/08 03:03:26;;;;;;;;;8.50;6.75;;;;;10.66;99.51;102012.25;5018495;28;46446;-71
2023/04/08 03:05:52;;;;;;;;;9.00;7.00;;;;;10.65;99.31;102020.09;5034937;28;45447;-71
2023/04/08 03:08:17;;;;;;;;;8.25;7.00;;;;;10.60;98.76;102008.50;5035976;28;45389;-71
2023/04/08 03:10:43;;;;;;;;;4.50;4.50;;;;;10.54;98.43;102006.56;5036658;28;45346;-70
2023/04/08 03:13:08;;;;;;;;;7.75;4.00;;;;;10.53;98.32;102019.75;5034464;28;70174;-70
2023/04/08 03:15:33;;;;;;;;;7.25;6.00;;;;;10.51;98.79;102021.44;5035562;28;61844;-71
2023/04/08 03:17:59;;;;;;;;;8.25;6.75;;;;;10.49;99.54;102026.66;5034981;28;62492;-70
2023/04/08 03:20:24;;;;;;;;;7.00;6.00;;;;;10.48;100.00;102020.50;5034810;28;61114;-71
2023/04/08 03:22:49;;;;;;;;;12.50;6.00;;;;;10.44;100.00;102023.91;5035806;28;45801;-71
2023/04/08 03:25:15;;;;;;;;;8.50;5.50;;;;;10.45;100.00;102020.41;5036204;28;66302;-71
2023/04/08 03:27:40;;;;;;;;;6.00;6.00;;;;;10.43;99.67;102022.09;5039481;28;61029;-71
2023/04/08 03:30:08;;;;;;;;;8.50;7.00;;;;;10.42;99.46;102025.59;5034979;28;60691;-71
2023/04/08 03:32:34;;;;;;;;;5.50;5.50;;;;;10.38;99.70;102013.13;5035801;28;46741;-71
2023/04/08 03:34:59;;;;;;;;;11.00;7.50;;;;;10.40;100.00;102021.13;5013586;28;45686;-71
2023/04/08 03:37:24;;;;;;;;;6.75;6.75;;;;;10.38;100.00;102022.81;5033871;28;45705;-71
2023/04/08 03:39:50;;;;;;;;;8.00;6.00;;;;;10.37;100.00;102018.38;5016237;28;45581;-71
2023/04/08 03:42:15;;;;;;;;;8.25;5.00;;;;;10.34;100.00;102015.66;5034588;28;68808;-72
2023/04/08 03:44:40;;;;;;;;;11.00;6.00;;;;;10.31;100.00;102020.84;5034008;28;45506;-72
2023/04/08 03:47:06;;;;;;;;;10.00;7.00;;;;;10.28;100.00;102021.66;5034976;28;45460;-71
2023/04/08 03:49:31;;;;;;;;;7.25;6.00;;;;;10.30;100.00;102029.59;5034577;28;45474;-71
2023/04/08 03:51:56;;;;;;;;;7.00;7.00;;;;;10.29;100.00;102028.72;5033859;28;66789;-71
2023/04/08 03:54:22;;;;;;;;;5.75;5.75;;;;;10.28;100.00;102034.84;5034257;28;61099;-71
2023/04/08 03:56:49;;;;;;;;;7.00;7.00;;;;;10.29;100.00;102028.72;5034131;28;62699;-71
2023/04/08 03:59:14;;;;;;;;;7.25;6.00;;;;;10.27;100.00;102024.22;5035348;28;45621;-71
2023/04/08 04:01:39;;;;;;;;;6.75;6.75;;;;;10.24;100.00;102019.75;5034971;28;46376;-71
2023/04/08 04:04:05;;;;;;;;;7.50;6.50;;;;;10.25;100.00;102026.81;5035041;28;45445;-71
2023/04/08 04:06:31;;;;;;;;;7.00;6.00;;;;;10.23;100.00;102024.13;5037205;28;45403;-71
2023/04/08 04:08:56;;;;;;;;;4.75;4.75;;;;;10.20;100.00;102026.63;5016826;28;45519;-72
2023/04/08 04:11:21;;;;;;;;;7.50;7.50;;;;;10.21;100.00;102030.16;5033974;28;71745;-71
2023/04/08 04:13:47;;;;;;;;;9.25;6.50;;;;;10.18;100.00;102027.44;5035686;28;45301;-71
2023/04/08 04:16:13;;;;;;;;;10.50;8.50;;;;;10.18;100.00;102030.09;5035051;28;45560;-70
2023/04/08 04:18:38;;;;;;;;;6.00;5.00;;;;;10.15;100.00;102024.69;5024143;28;48703;-69
2023/04/08 04:21:06;;;;;;;;;7.00;6.50;;;;;10.14;100.00;102017.63;5033848;28;69911;-71
2023/04/08 04:23:32;;;;;;;;;7.00;7.00;;;;;10.14;100.00;102021.16;5036410;28;48356;-71
2023/04/08 04:25:57;;;;;;;;;8.75;6.00;;;;;10.12;100.00;102027.22;5043238;28;45419;-70
2023/04/08 04:28:22;;;;;;;;;6.00;6.00;;;;;10.10;100.00;102024.53;5044365;28;55621;-71
2023/04/08 04:30:48;;;;;;;;;4.50;3.25;;;;;10.06;100.00;102030.56;5037026;28;66199;-71
2023/04/08 04:33:13;;;;;;;;;8.75;7.25;;;;;10.04;100.00;102039.28;5037577;28;45442;-70
2023/04/08 04:35:39;;;;;;;;;10.75;8.00;;;;;10.01;100.00;102033.91;5029124;28;63952;-70
2023/04/08 04:38:09;;;;;;;;;9.00;6.00;;;;;10.01;100.00;102041.81;5037299;28;45512;-70
2023/04/08 04:40:35;;;;;;;;;11.25;6.00;;;;;9.98;100.00;102046.16;5001370;28;46735;-71
2023/04/08 04:43:00;;;;;;;;;8.00;6.50;;;;;9.97;100.00;102046.13;5038422;28;45320;-71
2023/04/08 04:45:26;;;;;;;;;7.00;5.50;;;;;9.97;100.00;102051.41;5032622;28;45547;-70
2023/04/08 04:47:51;;;;;;;;;6.75;6.75;;;;;9.94;100.00;102051.28;5032568;28;59691;-71
2023/04/08 04:50:16;;;;;;;;;8.75;6.25;;;;;9.92;100.00;102050.34;5030094;28;67785;-71
2023/04/08 04:52:42;;;;;;;;;9.00;7.50;;;;;9.90;100.00;102054.66;5035685;28;61693;-71
2023/04/08 04:55:07;;;;;;;;;7.75;7.75;;;;;9.87;100.00;102060.75;5037474;28;45369;-71
2023/04/08 04:57:33;;;;;;;;;7.00;7.00;;;;;9.86;100.00;102061.59;5038021;28;45502;-70
2023/04/08 04:59:58;;;;;;;;;10.25;7.25;;;;;9.83;100.00;102061.47;5037009;28;66012;-71
2023/04/08 05:02:24;;;;;;;;;14.75;7.75;;;;;9.82;100.00;102066.72;5037252;28;45361;-70
2023/04/08 05:04:52;;;;;;;;;8.00;6.75;;;;;9.80;100.00;102069.31;5037792;28;45332;-71
2023/04/08 05:07:17;;;;;;;;;5.00;5.00;;;;;9.79;100.00;102070.13;5041259;28;45560;-70
2023/04/08 05:09:42;;;;;;;;;8.00;6.50;;;;;9.77;100.00;102071.81;5039509;28;46959;-71
2023/04/08 05:12:08;;;;;;;;;7.75;6.75;;;;;9.76;100.00;102071.78;5027393;28;69235;-71
2023/04/08 05:14:33;;;;;;;;;6.25;4.50;;;;;9.75;100.00;102075.25;5023536;28;45265;-72
2023/04/08 05:16:58;;;;;;;;;11.50;6.75;;;;;9.72;100.00;102076.03;5037820;28;49651;-71
2023/04/08 05:19:24;;;;;;;;;7.25;6.00;;;;;9.69;100.00;102073.28;5037453;28;45794;-70
2023/04/08 05:21:49;;;;;;;;;11.25;7.00;;;;;9.69;100.00;102076.84;5035350;28;67946;-72
2023/04/08 05:24:15;;;;;;;;;7.00;7.00;;;;;9.69;100.00;102079.50;5132961;22;46026;-71
2023/04/08 05:26:40;;;;;;;;;6.50;4.25;;;;;9.66;100.00;102075.84;5016284;28;64333;-71
2023/04/08 05:29:05;;;;;;;;;7.00;7.00;;;;;9.67;100.00;102090.81;5018371;28;46258;-71
2023/04/08 05:31:31;;;;;;;;;9.75;6.25;;;;;9.66;100.00;102092.56;5035015;28;68797;-71
2023/04/08 05:33:56;;;;;;;;;13.25;9.75;;;;;9.66;100.00;102095.19;5036761;28;45837;-71
2023/04/08 05:36:21;;;;;;;;;9.75;6.75;;;;;9.66;100.00;102099.56;5037237;28;49067;-71
2023/04/08 05:38:47;;;;;;;;;9.75;7.00;;;;;9.65;100.00;102105.69;5034770;28;65074;-71
2023/04/08 05:41:13;;;;;;;;;10.25;8.00;;;;;9.69;100.00;102108.50;5036838;28;45328;-70
2023/04/08 05:43:38;;;;;;;;;11.75;8.75;;;;;9.69;100.00;102107.56;5036854;28;45482;-71
2023/04/08 05:46:07;;;;;;;;;8.75;8.75;;;;;9.70;100.00;102104.13;5037107;28;54665;-71
2023/04/08 05:48:33;;;;;;;;;12.50;11.00;;;;;9.72;100.00;102110.34;5036337;28;46555;-70
2023/04/08 05:50:58;;;;;;;;;14.25;10.25;;;;;9.74;100.00;102105.09;5036594;28;64984;-71
2023/04/08 05:53:24;;;;;;;;;9.75;9.25;;;;;9.74;100.00;102113.91;5036655;28;45368;-71
2023/04/08 05:55:49;;;;;;;;;13.25;9.75;;;;;9.79;100.00;102114.06;5037707;28;45590;-71
2023/04/08 05:58:15;;;;;;;;;13.50;8.75;;;;;9.87;100.00;102115.25;5036787;28;46631;-71
2023/04/08 06:00:40;;;;;;;;;13.75;9.25;;;;;9.92;100.00;102118.94;5035977;28;71017;-73
2023/04/08 06:03:05;;;;;;;;;12.75;9.00;;;;;9.91;100.00;102114.53;5033087;28;49377;-72
2023/04/08 06:05:31;;;;;;;;;19.00;12.50;;;;;9.96;100.00;102108.56;5013235;28;63139;-73
2023/04/08 06:07:56;;;;;;;;;14.50;11.50;;;;;9.97;100.00;102114.72;5035664;28;45654;-73
2023/04/08 06:10:22;;;;;;;;;10.25;8.00;;;;;10.00;100.00;102124.47;5034468;28;55285;-71
2023/04/08 06:12:47;;;;;;;;;12.75;11.00;;;;;10.05;100.00;102123.78;5034128;28;60019;-72
2023/04/08 06:15:12;;;;;;;;;14.25;13.00;;;;;10.07;100.00;102124.75;5036037;28;61802;-72
2023/04/08 06:17:38;;;;;;;;;6.00;6.00;;;;;10.08;100.00;102133.56;5035712;28;57811;-73
2023/04/08 06:20:08;;;;;;;;;13.75;11.50;;;;;10.12;100.00;102135.44;5035637;28;45518;-72
2023/04/08 06:22:37;;;;;;;;;14.00;8.25;;;;;10.12;100.00;102125.81;5036792;28;45585;-72
2023/04/08 06:25:02;;;;;;;;;16.25;8.75;;;;;10.13;100.00;102129.34;5036258;28;45503;-74
2023/04/08 06:27:27;;;;;;;;;9.75;8.00;;;;;10.16;100.00;102137.34;5034506;28;45615;-73
2023/04/08 06:29:54;;;;;;;;;12.00;11.25;;;;;10.17;100.00;102136.47;5033644;28;62435;-72
2023/04/08 06:32:19;;;;;;;;;12.50;10.00;;;;;10.19;100.00;102137.44;5036282;28;45644;-73
2023/04/08 06:34:45;;;;;;;;;15.25;12.50;;;;;10.21;100.00;102141.91;5036084;28;45501;-72
2023/04/08 06:37:10;;;;;;;;;14.75;12.75;;;;;10.23;100.00;102145.56;5036424;28;45526;-72
2023/04/08 06:39:35;;;;;;;;;14.50;12.50;;;;;10.25;100.00;102142.97;5017804;28;45423;-72
2023/04/08 06:42:01;;;;;;;;;14.00;12.00;;;;;10.26;100.00;102144.75;5033539;28;59534;-72
2023/04/08 06:44:26;;;;;;;;;13.50;12.00;;;;;10.29;100.00;102152.78;5038085;28;45459;-72
2023/04/08 06:46:52;;;;;;;;;10.50;9.00;;;;;10.35;100.00;102162.66;5030409;28;68814;-73
2023/04/08 06:49:17;;;;;;;;;17.50;14.25;;;;;10.41;100.00;102168.13;5026036;28;61651;-72
2023/04/08 06:51:42;;;;;;;;;18.75;12.00;;;;;10.45;100.00;102170.94;5034027;28;45523;-72
2023/04/08 06:54:10;;;;;;;;;19.00;15.00;;;;;10.51;100.00;102174.63;5032144;28;61660;-71
2023/04/08 06:56:36;;;;;;;;;16.75;10.00;;;;;10.54;100.00;102178.22;5034601;28;45767;-72
2023/04/08 06:59:02;;;;;;;;;9.75;9.75;;;;;10.61;100.00;102172.31;5034799;28;45463;-72
2023/04/08 07:01:27;;;;;;;;;12.75;10.75;;;;;10.65;100.00;102175.94;5017856;28;45464;-72
2023/04/08 07:03:53;;;;;;;;;12.00;11.75;;;;;10.70;100.00;102179.63;5033376;28;46765;-72
2023/04/08 07:06:18;;;;;;;;;11.50;9.25;;;;;10.72;100.00;102177.94;5033825;28;45654;-72
2023/04/08 07:08:43;;;;;;;;;8.00;4.50;;;;;10.78;100.00;102186.06;5034194;28;66089;-72
2023/04/08 07:11:09;;;;;;;;;10.50;7.75;;;;;10.82;100.00;102192.34;5032341;28;58350;-72
2023/04/08 07:13:34;;;;;;;;;10.00;9.00;;;;;10.84;100.00;102186.25;5034520;28;45364;-74
2023/04/08 07:16:00;;;;;;;;;12.00;9.00;;;;;10.86;100.00;102186.28;5033563;28;46363;-71
2023/04/08 07:18:25;;;;;;;;;12.50;9.50;;;;;10.93;100.00;102181.28;5034323;28;45363;-71
2023/04/08 07:20:52;;;;;;;;;8.25;7.00;;;;;10.98;100.00;102186.69;5030061;28;45498;-71
2023/04/08 07:23:18;;;;;;;;;7.00;4.50;;;;;11.04;100.00;102183.34;5032932;28;45897;-72
2023/04/08 07:25:44;;;;;;;;;7.25;7.00;;;;;11.09;100.00;102181.75;5034336;28;46632;-71
2023/04/08 07:28:10;;;;;;;;;7.00;7.00;;;;;11.11;100.00;102182.69;5041208;28;45412;-70
2023/04/08 07:30:35;;;;;;;;;7.00;7.00;;;;;11.13;100.00;102183.59;5033049;28;46896;-71
2023/04/08 07:33:00;;;;;;;;;8.75;6.50;;;;;11.17;100.00;102190.78;5033117;28;63013;-71
2023/04/08 07:35:26;;;;;;;;;9.00;7.75;;;;;11.19;100.00;102184.72;5014863;28;67859;-73
2023/04/08 07:37:52;;;;;;;;;9.75;8.00;;;;;11.22;100.00;102194.47;5034110;28;46051;-71
2023/04/08 07:40:17;;;;;;;;;11.50;7.50;;;;;11.26;100.00;102193.72;5030017;28;45506;-70
2023/04/08 07:42:42;;;;;;;;;9.00;8.75;;;;;11.30;100.00;102195.63;5034751;28;45474;-70
2023/04/08 07:45:08;;;;;;;;;10.25;10.00;;;;;11.35;100.00;102195.75;5029677;28;65147;-71
2023/04/08 07:47:34;;;;;;;;;11.00;10.00;;;;;11.36;100.00;102193.16;5029610;28;45610;-74
2023/04/08 07:50:00;;;;;;;;;10.00;7.75;;;;;11.37;100.00;102201.97;5030919;28;45491;-72
2023/04/08 07:52:25;;;;;;;;;10.50;10.50;;;;;11.39;100.00;102200.25;5032857;28;45679;-72
2023/04/08 07:54:50;;;;;;;;;14.25;10.75;;;;;11.40;100.00;102194.09;5032858;28;45545;-72
2023/04/08 07:57:16;;;;;;;;;10.00;8.00;;;;;11.41;100.00;102203.84;5032814;28;65883;-72
2023/04/08 07:59:41;;;;;;;;;13.25;10.00;;;;;11.41;100.00;102201.22;5031063;28;46015;-70
2023/04/08 08:02:06;;;;;;;;;14.00;11.00;;;;;11.46;100.00;102208.44;5029601;28;61073;-72
2023/04/08 08:04:32;;;;;;;;;15.00;11.50;;;;;11.49;100.00;102202.31;5036745;28;61488;-76
2023/04/08 08:06:57;;;;;;;;;12.75;9.50;;;;;11.58;100.00;102209.63;5040351;28;58377;-72
2023/04/08 08:09:22;;;;;;;;;11.75;11.75;;;;;11.60;100.00;102206.16;5018879;28;45755;-72
2023/04/08 08:11:48;;;;;;;;;10.00;10.00;;;;;11.63;100.00;102203.63;5035884;28;60779;-71
2023/04/08 08:14:13;;;;;;;;;10.25;9.00;;;;;11.67;100.00;102200.22;5036956;28;69537;-71
2023/04/08 08:16:39;;;;;;;;;17.25;10.25;;;;;11.72;100.00;102190.66;5036155;28;45487;-72
2023/04/08 08:19:06;;;;;;;;;9.25;9.00;;;;;11.75;100.00;102198.66;5036439;28;45859;-72
2023/04/08 08:21:31;;;;;;;;;12.50;11.00;;;;;11.78;100.00;102201.41;5036937;28;45559;-72
2023/04/08 08:23:58;;;;;;;;;11.25;11.00;;;;;11.81;100.00;102203.25;5035845;28;45609;-72
2023/04/08 08:26:24;;;;;;;;;12.25;11.00;;;;;11.85;100.00;102196.31;5034513;28;45513;-72
2023/04/08 08:28:49;;;;;;;;;15.75;10.75;;;;;11.91;100.00;102210.63;5036843;28;45534;-72
2023/04/08 08:31:15;;;;;;;;;12.00;11.50;;;;;11.95;100.00;102212.50;5037384;28;47386;-73
2023/04/08 08:33:40;;;;;;;;;15.75;10.75;;;;;12.01;100.00;102217.97;5035674;28;67916;-72
2023/04/08 08:36:06;;;;;;;;;15.50;15.00;;;;;12.05;100.00;102217.19;5036888;28;45359;-72
2023/04/08 08:38:31;;;;;;;;;15.50;12.25;;;;;12.10;100.00;102217.31;5036659;28;45426;-73
2023/04/08 08:40:59;;;;;;;;;14.75;11.25;;;;;12.16;100.00;102212.19;5037503;28;45230;-72
2023/04/08 08:43:25;;;;;;;;;15.00;11.00;;;;;12.20;100.00;102213.19;5033844;28;45893;-71
2023/04/08 08:45:50;;;;;;;;;15.75;14.25;;;;;12.24;100.00;102217.66;5021272;28;45494;-72
2023/04/08 08:48:16;;;;;;;;;21.75;13.75;;;;;12.29;100.00;102221.34;5035086;28;64141;-72
2023/04/08 08:50:42;;;;;;;;;11.00;10.00;;;;;12.30;100.00;102217.81;5036150;28;45518;-72
2023/04/08 08:53:07;;;;;;;;;14.50;14.50;;;;;12.34;100.00;102214.41;5035900;28;45780;-72
2023/04/08 08:55:33;;;;;;;;;15.75;13.00;;;;;12.40;100.00;102214.56;5035667;28;65470;-73
2023/04/08 08:58:00;;;;;;;;;18.25;11.00;;;;;12.43;100.00;102212.00;5036400;28;45787;-72
2023/04/08 09:00:33;;;;;;;;;12.25;11.50;;;;;12.49;100.00;102211.25;5035170;28;45498;-71
2023/04/08 09:03:24;;;;;;;;;14.00;12.25;;;;;12.53;99.83;102211.38;5036205;28;46410;-72
2023/04/08 09:05:57;;;;;;;;;15.75;12.00;;;;;12.54;99.92;102213.16;5036930;28;45356;-72
2023/04/08 09:08:33;;;;;;;;;15.75;11.75;;;;;12.58;100.00;102217.69;5036885;28;45518;-73
2023/04/08 09:11:20;;;;;;;;;16.75;13.00;;;;;12.64;99.87;102218.69;5037284;28;46616;-73
2023/04/08 09:13:46;;;;;;;;;16.75;13.25;;;;;12.67;100.00;102214.34;5032075;28;45691;-73
2023/04/08 09:16:13;;;;;;;;;18.75;15.50;;;;;12.71;99.66;102213.59;5014708;28;45622;-72
2023/04/08 09:18:42;;;;;;;;;13.50;12.25;;;;;12.77;99.81;102220.78;5037187;28;45305;-73
2023/04/08 09:21:07;;;;;;;;;14.25;11.75;;;;;12.84;99.72;102221.00;5036954;28;45561;-73
2023/04/08 09:23:45;;;;;;;;;11.25;11.25;;;;;12.89;99.44;102218.44;5034779;28;71585;-73
2023/04/08 09:26:21;;;;;;;;;15.00;12.50;;;;;12.94;99.25;102219.41;5034580;28;45538;-72
2023/04/08 09:29:06;;;;;;;;;12.25;12.00;;;;;13.01;99.03;102220.47;5038197;28;45487;-72
2023/04/08 09:31:33;;;;;;;;;15.50;13.00;;;;;13.05;99.57;102212.63;5033362;28;45860;-73
2023/04/08 09:34:03;;;;;;;;;14.50;14.00;;;;;13.13;99.18;102219.88;5036851;28;47438;-72
2023/04/08 09:36:29;;;;;;;;;13.25;11.75;;;;;13.22;98.72;102215.69;5019858;28;45585;-72
2023/04/08 09:38:55;;;;;;;;;14.50;10.50;;;;;13.30;98.58;102226.47;5018350;28;45477;-73
2023/04/08 09:41:22;;;;;;;;;12.50;12.25;;;;;13.35;98.64;102223.06;5016947;28;45571;-73
2023/04/08 09:43:55;;;;;;;;;13.33;11.00;;;;;13.40;97.62;102217.84;5037810;28;46685;-73
2023/04/08 09:46:42;;;;;;;;;12.25;11.50;;;;;13.46;97.00;102233.91;5036202;28;45532;-73
2023/04/08 09:49:25;;;;;;;;;13.33;11.00;;;;;13.49;97.04;102222.47;5030968;28;45439;-73
2023/04/08 09:52:03;;;;;;;;;9.33;8.00;;;;;13.55;96.44;102219.94;5013172;28;45540;-73
2023/04/08 09:54:53;;;;;;;;;11.75;11.75;;;;;13.60;96.16;102224.47;5036028;28;46578;-72
2023/04/08 09:57:32;;;;;;;;;9.00;7.00;;;;;13.65;96.15;102223.69;5022005;28;45516;-72
2023/04/08 10:00:04;;;;;;;;;12.33;9.67;;;;;13.69;96.11;102220.22;5035287;28;45337;-72
2023/04/08 10:02:40;;;;;;;;;13.00;12.00;;;;;13.79;95.48;102222.19;5016601;28;45697;-72
2023/04/08 10:05:06;;;;;;;;;11.33;10.67;;;;;13.85;95.54;102223.22;5018066;28;45299;-72
2023/04/08 10:07:34;;;;;;;;;14.67;11.00;;;;;13.92;95.20;102220.69;5034448;28;45514;-72
2023/04/08 10:10:00;;;;;;;;;13.33;8.67;;;;;13.98;95.49;102212.84;5035650;28;45388;-73
2023/04/08 10:12:26;;;;;;;;;11.33;8.00;;;;;14.06;95.91;102217.44;5036034;28;45525;-72
2023/04/08 10:15:24;;;;;;;;;16.00;12.00;;;;;14.21;95.00;102218.56;5032720;28;46974;-73
2023/04/08 10:17:54;;;;;;;;;39.75;36.00;;;;;14.31;94.69;102224.06;5034761;28;45516;-72
2023/04/08 10:22:57;;;;;;;;;12.00;12.00;;;;;14.42;93.65;102216.28;5138222;22;63784;-72
2023/04/08 10:25:25;;;;;;;;;14.00;9.67;;;;;14.50;93.68;102212.06;5013750;28;65582;-73
2023/04/08 10:27:50;;;;;;;;;9.67;9.00;;;;;14.56;93.86;102220.13;5016122;28;45447;-72
2023/04/08 10:30:25;;;;;;;;;14.67;10.33;;;;;14.60;92.24;102211.34;5014851;28;59958;-72
2023/04/08 10:32:50;;;;;;;;;15.00;13.67;;;;;14.60;92.04;102206.03;5015007;28;45591;-72
2023/04/08 10:35:16;;;;;;;;;15.33;11.00;;;;;14.63;91.30;102208.72;5015463;28;46488;-73
2023/04/08 10:37:42;;;;;;;;;18.75;13.25;;;;;14.66;91.46;102205.22;5014698;28;45590;-72
2023/04/08 10:40:18;;;;;;;;;15.00;11.33;;;;;14.70;91.58;102209.72;5012279;28;45551;-72
2023/04/08 10:42:43;;;;;;;;;10.00;8.67;;;;;14.74;91.11;102202.69;5015738;28;45506;-73
2023/04/08 10:45:09;;;;;;;;;10.00;10.00;;;;;14.78;90.76;102196.53;5014556;28;67374;-72
2023/04/08 10:47:35;;;;;;;;;14.33;10.00;;;;;14.84;90.53;102193.97;5014458;28;45452;-72
2023/04/08 10:50:11;;;;;;;;;10.33;9.67;;;;;14.89;90.41;102184.31;5016344;28;45361;-73
2023/04/08 10:52:48;;;;;;;;;19.50;18.25;;;;;14.93;89.14;102180.81;5015503;28;45669;-72
2023/04/08 10:55:15;;;;;;;;;19.75;16.50;;;;;14.97;89.90;102187.06;5015721;28;46456;-73
2023/04/08 10:57:41;;;;;;;;;45.25;34.00;;;;;15.04;89.60;102176.56;5015263;28;45418;-73
2023/04/08 11:00:16;;;;;;;;;9.67;7.33;;;;;15.13;89.61;102181.13;5014693;28;45332;-72
2023/04/08 11:02:42;;;;;;;;;64.75;46.50;;;;;15.24;88.76;102174.16;5015683;28;45661;-72
2023/04/08 11:05:09;;;;;;;;;17.00;14.75;;;;;15.32;88.28;102169.81;5013777;28;71990;-73
2023/04/08 11:07:40;;;;;;;;;11.00;10.00;;;;;15.38;88.08;102169.00;5015593;28;45432;-72
2023/04/08 11:10:06;;;;;;;;;17.67;13.00;;;;;15.41;87.73;102161.06;5015280;28;45440;-72
2023/04/08 11:12:32;;;;;;;;;16.33;11.67;;;;;15.44;87.19;102148.69;5014432;28;45608;-72
2023/04/08 11:14:58;;;;;;;;;10.33;8.33;;;;;15.47;86.63;102153.16;5015449;28;47409;-72
2023/04/08 11:17:23;;;;;;;;;9.33;6.00;;;;;15.53;86.38;102155.88;5014631;28;66060;-72
2023/04/08 11:19:49;;;;;;;;;7.67;6.67;;;;;15.56;85.74;102153.28;5016113;28;45848;-72